sensor_id;sensor_type;location;lat;lon;timestamp;temperature;humidity
35240;DHT22;21376;50.954;4.716;2023-12-28T00:07:40;10.90;99.90
35240;DHT22;21376;50.954;4.716;2023-12-28T00:10:09;10.90;99.90
35240;DHT22;21376;50.954;4.716;2023-12-28T00:12:38;11.00;99.90
35240;DHT22;21376;50.954;4.716;2023-12-28T00:15:07;11.00;99.90
35240;DHT22;21376;50.954;4.716;2023-12-28T00:17:55;10.90;99.90
35240;DHT22;21376;50.954;4.716;2023-12-28T00:20:24;10.90;99.90
35240;DHT22;21376;50.954;4.716;2023-12-28T00:22:53;11.00;99.90
35240;DHT22;21376;50.954;4.716;2023-12-28T00:25:22;10.90;99.90
35240;DHT22;21376;50.954;4.716;2023-12-28T00:27:51;10.90;99.90
35240;DHT22;21376;50.954;4.716;2023-12-28T00:30:19;11.10;99.90
35240;DHT22;21376;50.954;4.716;2023-12-28T00:32:51;11.10;99.90
35240;DHT22;21376;50.954;4.716;2023-12-28T00:38:42;11.10;99.90
35240;DHT22;21376;50.954;4.716;2023-12-28T00:41:07;11.20;99.90
35240;DHT22;21376;50.954;4.716;2023-12-28T00:43:36;11.20;99.90
35240;DHT22;21376;50.954;4.716;2023-12-28T00:46:05;11.20;99.90
35240;DHT22;21376;50.954;4.716;2023-12-28T00:48:32;11.20;99.90
35240;DHT22;21376;50.954;4.716;2023-12-28T00:51:01;11.10;99.90
35240;DHT22;21376;50.954;4.716;2023-12-28T00:53:57;11.00;99.90
35240;DHT22;21376;50.954;4.716;2023-12-28T00:56:26;11.10;99.90
35240;DHT22;21376;50.954;4.716;2023-12-28T00:58:55;11.10;99.90
35240;DHT22;21376;50.954;4.716;2023-12-28T01:01:38;11.10;99.90
35240;DHT22;21376;50.954;4.716;2023-12-28T01:04:07;11.10;99.90
35240;DHT22;21376;50.954;4.716;2023-12-28T03:15:42;10.50;99.90
35240;DHT22;21376;50.954;4.716;2023-12-28T03:18:11;10.60;99.90
35240;DHT22;21376;50.954;4.716;2023-12-28T03:20:40;10.70;99.90
35240;DHT22;21376;50.954;4.716;2023-12-28T03:26:44;10.80;99.90
35240;DHT22;21376;50.954;4.716;2023-12-28T03:29:13;10.70;99.90
35240;DHT22;21376;50.954;4.716;2023-12-28T03:32:00;10.80;99.90
35240;DHT22;21376;50.954;4.716;2023-12-28T03:34:29;10.80;99.90
35240;DHT22;21376;50.954;4.716;2023-12-28T03:36:59;10.70;99.90
35240;DHT22;21376;50.954;4.716;2023-12-28T03:39:28;10.90;99.90
35240;DHT22;21376;50.954;4.716;2023-12-28T03:42:08;10.90;99.90
35240;DHT22;21376;50.954;4.716;2023-12-28T03:44:37;10.90;99.90
35240;DHT22;21376;50.954;4.716;2023-12-28T03:47:21;10.90;99.90
35240;DHT22;21376;50.954;4.716;2023-12-28T03:49:51;10.90;99.90
35240;DHT22;21376;50.954;4.716;2023-12-28T03:52:20;11.00;99.90
35240;DHT22;21376;50.954;4.716;2023-12-28T03:55:05;11.00;99.90
35240;DHT22;21376;50.954;4.716;2023-12-28T03:57:34;11.00;99.90
35240;DHT22;21376;50.954;4.716;2023-12-28T04:00:23;11.00;99.90
35240;DHT22;21376;50.954;4.716;2023-12-28T04:03:27;11.00;99.90
35240;DHT22;21376;50.954;4.716;2023-12-28T04:09:39;11.00;99.90
35240;DHT22;21376;50.954;4.716;2023-12-28T04:12:11;11.10;99.90
35240;DHT22;21376;50.954;4.716;2023-12-28T04:14:39;11.10;99.90
35240;DHT22;21376;50.954;4.716;2023-12-28T04:29:09;11.20;99.90
35240;DHT22;21376;50.954;4.716;2023-12-28T04:31:40;11.20;99.90
35240;DHT22;21376;50.954;4.716;2023-12-28T04:34:10;11.20;99.90
35240;DHT22;21376;50.954;4.716;2023-12-28T04:36:42;11.10;99.90
35240;DHT22;21376;50.954;4.716;2023-12-28T04:39:15;11.10;99.90
35240;DHT22;21376;50.954;4.716;2023-12-28T04:41:43;11.10;99.90
35240;DHT22;21376;50.954;4.716;2023-12-28T04:44:12;11.10;99.90
35240;DHT22;21376;50.954;4.716;2023-12-28T04:46:41;11.10;99.90
35240;DHT22;21376;50.954;4.716;2023-12-28T04:49:18;11.00;99.90
35240;DHT22;21376;50.954;4.716;2023-12-28T04:51:47;11.10;99.90
35240;DHT22;21376;50.954;4.716;2023-12-28T04:54:16;11.20;99.90
35240;DHT22;21376;50.954;4.716;2023-12-28T04:56:43;11.10;99.90
35240;DHT22;21376;50.954;4.716;2023-12-28T04:59:15;11.20;99.90
35240;DHT22;21376;50.954;4.716;2023-12-28T05:02:02;11.20;99.90
35240;DHT22;21376;50.954;4.716;2023-12-28T05:04:42;11.10;99.90
35240;DHT22;21376;50.954;4.716;2023-12-28T05:07:11;11.10;99.90
35240;DHT22;21376;50.954;4.716;2023-12-28T05:09:40;11.10;99.90
35240;DHT22;21376;50.954;4.716;2023-12-28T05:12:11;11.20;99.90
35240;DHT22;21376;50.954;4.716;2023-12-28T05:14:55;11.20;99.90
35240;DHT22;21376;50.954;4.716;2023-12-28T05:20:51;11.10;99.90
35240;DHT22;21376;50.954;4.716;2023-12-28T05:23:20;11.10;99.90
35240;DHT22;21376;50.954;4.716;2023-12-28T05:25:48;11.00;99.90
35240;DHT22;21376;50.954;4.716;2023-12-28T05:28:17;10.80;99.90
35240;DHT22;21376;50.954;4.716;2023-12-28T05:33:39;10.80;99.90
35240;DHT22;21376;50.954;4.716;2023-12-28T05:36:07;10.80;99.90
35240;DHT22;21376;50.954;4.716;2023-12-28T05:38:35;10.80;99.90
35240;DHT22;21376;50.954;4.716;2023-12-28T05:44:10;10.90;99.90
35240;DHT22;21376;50.954;4.716;2023-12-28T05:46:48;10.90;99.90
35240;DHT22;21376;50.954;4.716;2023-12-28T05:49:17;10.90;99.90
35240;DHT22;21376;50.954;4.716;2023-12-28T05:51:46;10.80;99.90
35240;DHT22;21376;50.954;4.716;2023-12-28T05:54:14;10.80;99.90
35240;DHT22;21376;50.954;4.716;2023-12-28T05:56:43;10.90;99.90
35240;DHT22;21376;50.954;4.716;2023-12-28T05:59:12;11.00;99.90
35240;DHT22;21376;50.954;4.716;2023-12-28T06:01:44;11.00;99.90
35240;DHT22;21376;50.954;4.716;2023-12-28T06:07:23;11.00;99.90
35240;DHT22;21376;50.954;4.716;2023-12-28T06:19:35;10.60;99.90
35240;DHT22;21376;50.954;4.716;2023-12-28T06:22:05;10.50;99.90
35240;DHT22;21376;50.954;4.716;2023-12-28T06:24:37;10.50;99.90
35240;DHT22;21376;50.954;4.716;2023-12-28T06:27:03;10.60;99.90
35240;DHT22;21376;50.954;4.716;2023-12-28T06:29:29;10.50;99.90
35240;DHT22;21376;50.954;4.716;2023-12-28T06:31:55;10.50;99.90
35240;DHT22;21376;50.954;4.716;2023-12-28T06:34:24;10.40;99.90
35240;DHT22;21376;50.954;4.716;2023-12-28T06:36:49;10.50;99.90
35240;DHT22;21376;50.954;4.716;2023-12-28T06:39:15;10.50;99.90
35240;DHT22;21376;50.954;4.716;2023-12-28T06:41:50;10.50;99.90
35240;DHT22;21376;50.954;4.716;2023-12-28T06:44:28;10.50;99.90
35240;DHT22;21376;50.954;4.716;2023-12-28T06:46:55;10.50;99.90
35240;DHT22;21376;50.954;4.716;2023-12-28T06:49:22;10.50;99.90
35240;DHT22;21376;50.954;4.716;2023-12-28T06:51:51;10.50;99.90
35240;DHT22;21376;50.954;4.716;2023-12-28T06:54:18;10.60;99.90
35240;DHT22;21376;50.954;4.716;2023-12-28T06:56:47;10.60;99.90
35240;DHT22;21376;50.954;4.716;2023-12-28T06:59:15;10.50;99.90
35240;DHT22;21376;50.954;4.716;2023-12-28T07:01:44;10.50;99.90
35240;DHT22;21376;50.954;4.716;2023-12-28T07:04:11;10.40;99.90
35240;DHT22;21376;50.954;4.716;2023-12-28T07:06:40;10.40;99.90
35240;DHT22;21376;50.954;4.716;2023-12-28T07:09:10;10.40;99.90
35240;DHT22;21376;50.954;4.716;2023-12-28T07:11:42;10.30;99.90
35240;DHT22;21376;50.954;4.716;2023-12-28T07:14:11;10.30;99.90
35240;DHT22;21376;50.954;4.716;2023-12-28T07:16:40;10.30;99.90
35240;DHT22;21376;50.954;4.716;2023-12-28T07:19:09;10.30;99.90
35240;DHT22;21376;50.954;4.716;2023-12-28T07:21:38;10.20;99.90
35240;DHT22;21376;50.954;4.716;2023-12-28T07:27:18;10.20;99.90
35240;DHT22;21376;50.954;4.716;2023-12-28T07:32:41;10.20;99.90
35240;DHT22;21376;50.954;4.716;2023-12-28T07:35:10;10.10;99.90
35240;DHT22;21376;50.954;4.716;2023-12-28T07:37:42;10.10;99.90
35240;DHT22;21376;50.954;4.716;2023-12-28T07:40:11;10.20;99.90
35240;DHT22;21376;50.954;4.716;2023-12-28T07:42:40;10.20;99.90
35240;DHT22;21376;50.954;4.716;2023-12-28T07:45:09;10.30;99.90
35240;DHT22;21376;50.954;4.716;2023-12-28T07:47:38;10.20;99.90
35240;DHT22;21376;50.954;4.716;2023-12-28T07:56:31;10.10;99.90
35240;DHT22;21376;50.954;4.716;2023-12-28T07:59:00;10.10;99.90
35240;DHT22;21376;50.954;4.716;2023-12-28T08:01:29;10.10;99.90
35240;DHT22;21376;50.954;4.716;2023-12-28T08:03:57;10.10;99.90
35240;DHT22;21376;50.954;4.716;2023-12-28T08:06:26;10.00;99.90
35240;DHT22;21376;50.954;4.716;2023-12-28T08:08:55;10.20;99.90
35240;DHT22;21376;50.954;4.716;2023-12-28T08:11:24;10.30;99.90
35240;DHT22;21376;50.954;4.716;2023-12-28T08:13:55;10.30;99.90
35240;DHT22;21376;50.954;4.716;2023-12-28T08:16:24;10.30;99.90
35240;DHT22;21376;50.954;4.716;2023-12-28T08:18:53;10.20;99.90
35240;DHT22;21376;50.954;4.716;2023-12-28T08:21:22;10.30;99.90
35240;DHT22;21376;50.954;4.716;2023-12-28T08:27:10;10.30;99.90
35240;DHT22;21376;50.954;4.716;2023-12-28T08:29:39;10.40;99.90
35240;DHT22;21376;50.954;4.716;2023-12-28T08:38:40;10.50;99.90
35240;DHT22;21376;50.954;4.716;2023-12-28T08:41:21;10.60;99.90
35240;DHT22;21376;50.954;4.716;2023-12-28T08:43:52;10.60;99.90
35240;DHT22;21376;50.954;4.716;2023-12-28T08:46:38;10.70;99.90
35240;DHT22;21376;50.954;4.716;2023-12-28T08:49:07;10.80;99.90
35240;DHT22;21376;50.954;4.716;2023-12-28T08:51:44;10.90;99.90
35240;DHT22;21376;50.954;4.716;2023-12-28T08:54:13;10.80;99.90
35240;DHT22;21376;50.954;4.716;2023-12-28T08:56:42;10.90;99.90
35240;DHT22;21376;50.954;4.716;2023-12-28T09:02:33;11.00;99.90
35240;DHT22;21376;50.954;4.716;2023-12-28T09:05:02;11.40;99.90
35240;DHT22;21376;50.954;4.716;2023-12-28T09:07:28;11.20;99.90
35240;DHT22;21376;50.954;4.716;2023-12-28T09:09:54;11.10;99.90
35240;DHT22;21376;50.954;4.716;2023-12-28T09:12:23;11.40;99.90
35240;DHT22;21376;50.954;4.716;2023-12-28T09:14:49;11.50;99.90
35240;DHT22;21376;50.954;4.716;2023-12-28T09:17:22;11.50;99.90
35240;DHT22;21376;50.954;4.716;2023-12-28T09:19:51;11.60;99.90
35240;DHT22;21376;50.954;4.716;2023-12-28T09:29:01;12.10;99.90
35240;DHT22;21376;50.954;4.716;2023-12-28T09:31:53;12.30;99.90
35240;DHT22;21376;50.954;4.716;2023-12-28T09:34:33;12.70;99.90
35240;DHT22;21376;50.954;4.716;2023-12-28T09:37:02;12.70;99.90
35240;DHT22;21376;50.954;4.716;2023-12-28T09:39:31;12.50;99.90
35240;DHT22;21376;50.954;4.716;2023-12-28T09:42:12;12.70;99.90
35240;DHT22;21376;50.954;4.716;2023-12-28T09:47:37;14.20;99.90
35240;DHT22;21376;50.954;4.716;2023-12-28T09:50:30;15.10;99.90
35240;DHT22;21376;50.954;4.716;2023-12-28T09:53:00;14.90;99.90
35240;DHT22;21376;50.954;4.716;2023-12-28T09:55:31;15.10;99.90
35240;DHT22;21376;50.954;4.716;2023-12-28T09:58:00;14.90;99.90
35240;DHT22;21376;50.954;4.716;2023-12-28T10:00:34;14.70;99.90
35240;DHT22;21376;50.954;4.716;2023-12-28T10:03:00;15.00;99.90
35240;DHT22;21376;50.954;4.716;2023-12-28T10:05:29;14.90;99.90
35240;DHT22;21376;50.954;4.716;2023-12-28T10:07:58;14.20;99.90
35240;DHT22;21376;50.954;4.716;2023-12-28T10:10:29;13.80;99.90
35240;DHT22;21376;50.954;4.716;2023-12-28T10:12:58;13.80;99.90
35240;DHT22;21376;50.954;4.716;2023-12-28T10:15:24;13.90;99.90
35240;DHT22;21376;50.954;4.716;2023-12-28T10:17:53;13.70;99.90
35240;DHT22;21376;50.954;4.716;2023-12-28T10:20:19;13.50;99.90
35240;DHT22;21376;50.954;4.716;2023-12-28T10:25:21;13.50;99.90
35240;DHT22;21376;50.954;4.716;2023-12-28T10:27:50;13.60;99.90
35240;DHT22;21376;50.954;4.716;2023-12-28T10:30:23;13.50;99.90
35240;DHT22;21376;50.954;4.716;2023-12-28T10:32:49;13.20;99.90
35240;DHT22;21376;50.954;4.716;2023-12-28T10:39:08;13.20;99.90
35240;DHT22;21376;50.954;4.716;2023-12-28T10:41:41;13.30;99.90
35240;DHT22;21376;50.954;4.716;2023-12-28T10:44:17;13.40;99.90
35240;DHT22;21376;50.954;4.716;2023-12-28T10:46:50;13.30;99.90
35240;DHT22;21376;50.954;4.716;2023-12-28T10:49:25;13.30;99.90
35240;DHT22;21376;50.954;4.716;2023-12-28T10:51:54;13.10;99.90
35240;DHT22;21376;50.954;4.716;2023-12-28T10:54:52;13.10;99.90
35240;DHT22;21376;50.954;4.716;2023-12-28T10:57:28;13.00;99.90
35240;DHT22;21376;50.954;4.716;2023-12-28T11:00:07;13.00;99.90
35240;DHT22;21376;50.954;4.716;2023-12-28T11:09:07;12.80;99.90
35240;DHT22;21376;50.954;4.716;2023-12-28T11:11:37;13.00;99.90
35240;DHT22;21376;50.954;4.716;2023-12-28T11:14:09;13.30;99.90
35240;DHT22;21376;50.954;4.716;2023-12-28T11:16:38;13.50;99.90
35240;DHT22;21376;50.954;4.716;2023-12-28T11:19:10;13.70;99.90
35240;DHT22;21376;50.954;4.716;2023-12-28T11:21:40;13.60;99.90
35240;DHT22;21376;50.954;4.716;2023-12-28T11:24:10;13.40;99.90
35240;DHT22;21376;50.954;4.716;2023-12-28T11:26:42;13.40;99.90
35240;DHT22;21376;50.954;4.716;2023-12-28T11:29:11;13.30;99.90
35240;DHT22;21376;50.954;4.716;2023-12-28T11:31:40;13.20;99.90
35240;DHT22;21376;50.954;4.716;2023-12-28T11:34:09;13.00;99.90
35240;DHT22;21376;50.954;4.716;2023-12-28T11:36:55;13.00;99.90
35240;DHT22;21376;50.954;4.716;2023-12-28T11:39:54;13.10;99.90
35240;DHT22;21376;50.954;4.716;2023-12-28T11:45:56;13.10;99.90
35240;DHT22;21376;50.954;4.716;2023-12-28T11:48:26;12.90;99.90
35240;DHT22;21376;50.954;4.716;2023-12-28T11:51:25;12.90;99.90
35240;DHT22;21376;50.954;4.716;2023-12-28T11:53:58;12.90;99.90
35240;DHT22;21376;50.954;4.716;2023-12-28T11:56:26;12.80;99.90
35240;DHT22;21376;50.954;4.716;2023-12-28T11:58:55;12.80;99.90
35240;DHT22;21376;50.954;4.716;2023-12-28T12:01:21;13.00;99.90
35240;DHT22;21376;50.954;4.716;2023-12-28T12:03:48;13.10;99.90
35240;DHT22;21376;50.954;4.716;2023-12-28T12:06:20;13.00;99.90
35240;DHT22;21376;50.954;4.716;2023-12-28T12:08:49;13.00;99.90
35240;DHT22;21376;50.954;4.716;2023-12-28T12:11:29;13.00;99.90
35240;DHT22;21376;50.954;4.716;2023-12-28T12:13:59;13.10;99.90
35240;DHT22;21376;50.954;4.716;2023-12-28T12:16:32;13.10;99.90
35240;DHT22;21376;50.954;4.716;2023-12-28T12:19:00;13.10;99.90
35240;DHT22;21376;50.954;4.716;2023-12-28T12:21:26;13.20;99.90
35240;DHT22;21376;50.954;4.716;2023-12-28T12:24:07;13.20;99.90
35240;DHT22;21376;50.954;4.716;2023-12-28T12:26:36;13.10;99.90
35240;DHT22;21376;50.954;4.716;2023-12-28T12:32:20;13.00;99.90
35240;DHT22;21376;50.954;4.716;2023-12-28T12:34:49;12.80;99.90
35240;DHT22;21376;50.954;4.716;2023-12-28T12:37:18;12.70;99.90
35240;DHT22;21376;50.954;4.716;2023-12-28T12:39:44;12.70;99.90
35240;DHT22;21376;50.954;4.716;2023-12-28T12:42:51;12.90;99.90
35240;DHT22;21376;50.954;4.716;2023-12-28T12:45:20;13.00;99.90
35240;DHT22;21376;50.954;4.716;2023-12-28T12:51:01;12.90;99.90
35240;DHT22;21376;50.954;4.716;2023-12-28T12:53:33;13.00;99.90
35240;DHT22;21376;50.954;4.716;2023-12-28T12:56:14;13.00;99.90
35240;DHT22;21376;50.954;4.716;2023-12-28T12:58:43;12.90;99.90
35240;DHT22;21376;50.954;4.716;2023-12-28T13:01:28;12.90;99.90
35240;DHT22;21376;50.954;4.716;2023-12-28T13:04:00;12.60;99.90
35240;DHT22;21376;50.954;4.716;2023-12-28T13:34:40;12.20;99.90
35240;DHT22;21376;50.954;4.716;2023-12-28T13:37:09;12.20;99.90
35240;DHT22;21376;50.954;4.716;2023-12-28T13:39:36;12.30;99.90
35240;DHT22;21376;50.954;4.716;2023-12-28T13:42:07;12.30;99.90
35240;DHT22;21376;50.954;4.716;2023-12-28T13:44:36;12.20;99.90
35240;DHT22;21376;50.954;4.716;2023-12-28T13:47:05;12.10;99.90
35240;DHT22;21376;50.954;4.716;2023-12-28T13:49:35;12.10;99.90
35240;DHT22;21376;50.954;4.716;2023-12-28T13:52:01;12.20;99.90
35240;DHT22;21376;50.954;4.716;2023-12-28T13:54:32;12.10;99.90
35240;DHT22;21376;50.954;4.716;2023-12-28T13:57:10;12.10;99.90
35240;DHT22;21376;50.954;4.716;2023-12-28T13:59:39;12.10;99.90
35240;DHT22;21376;50.954;4.716;2023-12-28T14:02:05;12.20;99.90
35240;DHT22;21376;50.954;4.716;2023-12-28T14:04:34;12.10;99.90
35240;DHT22;21376;50.954;4.716;2023-12-28T14:07:04;12.00;99.90
35240;DHT22;21376;50.954;4.716;2023-12-28T14:09:33;12.00;99.90
35240;DHT22;21376;50.954;4.716;2023-12-28T14:12:27;12.10;99.90
35240;DHT22;21376;50.954;4.716;2023-12-28T14:14:52;12.20;99.90
35240;DHT22;21376;50.954;4.716;2023-12-28T14:17:20;12.20;99.90
35240;DHT22;21376;50.954;4.716;2023-12-28T14:19:49;12.10;99.90
35240;DHT22;21376;50.954;4.716;2023-12-28T14:25:41;12.00;99.90
35240;DHT22;21376;50.954;4.716;2023-12-28T14:28:08;12.00;99.90
35240;DHT22;21376;50.954;4.716;2023-12-28T14:30:41;11.90;99.90
35240;DHT22;21376;50.954;4.716;2023-12-28T14:33:07;11.80;99.90
35240;DHT22;21376;50.954;4.716;2023-12-28T14:49:15;11.90;99.90
35240;DHT22;21376;50.954;4.716;2023-12-28T14:51:45;11.70;99.90
35240;DHT22;21376;50.954;4.716;2023-12-28T14:54:14;11.90;99.90
35240;DHT22;21376;50.954;4.716;2023-12-28T14:56:56;11.90;99.90
35240;DHT22;21376;50.954;4.716;2023-12-28T14:59:25;11.70;99.90
35240;DHT22;21376;50.954;4.716;2023-12-28T15:01:51;11.70;99.90
35240;DHT22;21376;50.954;4.716;2023-12-28T15:04:20;11.70;99.90
35240;DHT22;21376;50.954;4.716;2023-12-28T15:06:49;11.70;99.90
35240;DHT22;21376;50.954;4.716;2023-12-28T15:09:17;11.70;99.90
35240;DHT22;21376;50.954;4.716;2023-12-28T15:12:02;11.60;99.90
35240;DHT22;21376;50.954;4.716;2023-12-28T15:14:31;11.60;99.90
35240;DHT22;21376;50.954;4.716;2023-12-28T15:17:00;11.50;99.90
35240;DHT22;21376;50.954;4.716;2023-12-28T15:19:26;11.50;99.90
35240;DHT22;21376;50.954;4.716;2023-12-28T15:22:12;11.50;99.90
35240;DHT22;21376;50.954;4.716;2023-12-28T15:24:38;11.40;99.90
35240;DHT22;21376;50.954;4.716;2023-12-28T15:27:07;11.40;99.90
35240;DHT22;21376;50.954;4.716;2023-12-28T15:29:36;11.40;99.90
35240;DHT22;21376;50.954;4.716;2023-12-28T15:32:05;11.30;99.90
35240;DHT22;21376;50.954;4.716;2023-12-28T15:34:34;11.30;99.90
35240;DHT22;21376;50.954;4.716;2023-12-28T15:37:03;11.20;99.90
35240;DHT22;21376;50.954;4.716;2023-12-28T15:39:29;11.20;99.90
35240;DHT22;21376;50.954;4.716;2023-12-28T15:42:00;11.20;99.90
35240;DHT22;21376;50.954;4.716;2023-12-28T15:44:28;11.20;99.90
35240;DHT22;21376;50.954;4.716;2023-12-28T15:47:01;11.20;99.90
35240;DHT22;21376;50.954;4.716;2023-12-28T15:49:29;11.10;99.90
35240;DHT22;21376;50.954;4.716;2023-12-28T15:51:58;11.20;99.90
35240;DHT22;21376;50.954;4.716;2023-12-28T15:54:28;11.20;99.90
35240;DHT22;21376;50.954;4.716;2023-12-28T16:00:17;11.10;99.90
35240;DHT22;21376;50.954;4.716;2023-12-28T16:02:46;11.10;99.90
35240;DHT22;21376;50.954;4.716;2023-12-28T16:05:15;11.10;99.90
35240;DHT22;21376;50.954;4.716;2023-12-28T16:07:42;11.10;99.90
35240;DHT22;21376;50.954;4.716;2023-12-28T16:10:19;11.00;99.90
35240;DHT22;21376;50.954;4.716;2023-12-28T16:12:48;11.10;99.90
35240;DHT22;21376;50.954;4.716;2023-12-28T16:15:34;11.00;99.90
35240;DHT22;21376;50.954;4.716;2023-12-28T16:18:06;11.00;99.90
35240;DHT22;21376;50.954;4.716;2023-12-28T16:20:34;11.00;99.90
35240;DHT22;21376;50.954;4.716;2023-12-28T16:23:04;11.10;99.90
35240;DHT22;21376;50.954;4.716;2023-12-28T16:25:33;11.00;99.90
35240;DHT22;21376;50.954;4.716;2023-12-28T16:28:02;11.00;99.90
35240;DHT22;21376;50.954;4.716;2023-12-28T16:30:31;10.90;99.90
35240;DHT22;21376;50.954;4.716;2023-12-28T16:33:00;11.00;99.90
35240;DHT22;21376;50.954;4.716;2023-12-28T16:35:29;11.00;99.90
35240;DHT22;21376;50.954;4.716;2023-12-28T16:37:57;11.00;99.90
35240;DHT22;21376;50.954;4.716;2023-12-28T16:40:26;11.00;99.90
35240;DHT22;21376;50.954;4.716;2023-12-28T16:42:55;10.90;99.90
35240;DHT22;21376;50.954;4.716;2023-12-28T16:45:24;11.00;99.90
35240;DHT22;21376;50.954;4.716;2023-12-28T16:50:18;11.00;99.90
35240;DHT22;21376;50.954;4.716;2023-12-28T16:52:52;11.10;99.90
35240;DHT22;21376;50.954;4.716;2023-12-28T16:55:21;11.10;99.90
35240;DHT22;21376;50.954;4.716;2023-12-28T16:57:51;11.10;99.90
35240;DHT22;21376;50.954;4.716;2023-12-28T17:00:20;11.10;99.90
35240;DHT22;21376;50.954;4.716;2023-12-28T17:02:46;11.10;99.90
35240;DHT22;21376;50.954;4.716;2023-12-28T17:05:15;11.10;99.90
35240;DHT22;21376;50.954;4.716;2023-12-28T17:07:45;11.10;99.90
35240;DHT22;21376;50.954;4.716;2023-12-28T17:10:14;11.10;99.90
35240;DHT22;21376;50.954;4.716;2023-12-28T17:12:43;11.10;99.90
35240;DHT22;21376;50.954;4.716;2023-12-28T17:15:13;11.10;99.90
35240;DHT22;21376;50.954;4.716;2023-12-28T17:17:43;11.10;99.90
35240;DHT22;21376;50.954;4.716;2023-12-28T17:20:16;11.10;99.90
35240;DHT22;21376;50.954;4.716;2023-12-28T17:22:59;11.20;99.90
35240;DHT22;21376;50.954;4.716;2023-12-28T17:28:23;11.30;99.90
35240;DHT22;21376;50.954;4.716;2023-12-28T17:34:15;11.10;99.90
35240;DHT22;21376;50.954;4.716;2023-12-28T17:36:44;11.10;99.90
35240;DHT22;21376;50.954;4.716;2023-12-28T17:39:13;11.10;99.90
35240;DHT22;21376;50.954;4.716;2023-12-28T17:41:41;11.00;99.90
35240;DHT22;21376;50.954;4.716;2023-12-28T17:44:21;11.00;99.90
35240;DHT22;21376;50.954;4.716;2023-12-28T17:47:13;10.90;99.90
35240;DHT22;21376;50.954;4.716;2023-12-28T17:49:48;10.80;99.90
35240;DHT22;21376;50.954;4.716;2023-12-28T17:52:17;10.70;99.90
35240;DHT22;21376;50.954;4.716;2023-12-28T17:54:48;10.70;99.90
35240;DHT22;21376;50.954;4.716;2023-12-28T17:57:16;10.70;99.90
35240;DHT22;21376;50.954;4.716;2023-12-28T18:03:34;10.80;99.90
35240;DHT22;21376;50.954;4.716;2023-12-28T18:06:21;10.80;99.90
35240;DHT22;21376;50.954;4.716;2023-12-28T18:08:50;10.80;99.90
35240;DHT22;21376;50.954;4.716;2023-12-28T18:11:18;10.80;99.90
35240;DHT22;21376;50.954;4.716;2023-12-28T18:13:50;10.90;99.90
35240;DHT22;21376;50.954;4.716;2023-12-28T18:16:33;10.90;99.90
35240;DHT22;21376;50.954;4.716;2023-12-28T18:19:07;10.90;99.90
35240;DHT22;21376;50.954;4.716;2023-12-28T18:21:36;10.90;99.90
35240;DHT22;21376;50.954;4.716;2023-12-28T18:24:10;10.90;99.90
35240;DHT22;21376;50.954;4.716;2023-12-28T18:26:46;11.00;99.90
35240;DHT22;21376;50.954;4.716;2023-12-28T18:29:15;10.90;99.90
35240;DHT22;21376;50.954;4.716;2023-12-28T18:34:51;10.80;99.90
35240;DHT22;21376;50.954;4.716;2023-12-28T18:37:21;10.70;99.90
35240;DHT22;21376;50.954;4.716;2023-12-28T18:39:53;10.70;99.90
35240;DHT22;21376;50.954;4.716;2023-12-28T18:42:32;10.60;99.90
35240;DHT22;21376;50.954;4.716;2023-12-28T18:45:07;10.60;99.90
35240;DHT22;21376;50.954;4.716;2023-12-28T18:52:27;10.50;99.90
35240;DHT22;21376;50.954;4.716;2023-12-28T18:54:56;10.50;99.90
35240;DHT22;21376;50.954;4.716;2023-12-28T18:57:25;10.50;99.90
35240;DHT22;21376;50.954;4.716;2023-12-28T18:59:57;10.40;99.90
35240;DHT22;21376;50.954;4.716;2023-12-28T19:02:26;10.50;99.90
35240;DHT22;21376;50.954;4.716;2023-12-28T19:04:56;10.50;99.90
35240;DHT22;21376;50.954;4.716;2023-12-28T19:07:22;10.60;99.90
35240;DHT22;21376;50.954;4.716;2023-12-28T19:13:43;10.70;99.90
35240;DHT22;21376;50.954;4.716;2023-12-28T19:16:19;10.70;99.90
35240;DHT22;21376;50.954;4.716;2023-12-28T19:18:49;10.70;99.90
35240;DHT22;21376;50.954;4.716;2023-12-28T19:21:18;10.70;99.90
35240;DHT22;21376;50.954;4.716;2023-12-28T19:24:03;10.70;99.90
35240;DHT22;21376;50.954;4.716;2023-12-28T19:26:31;10.60;99.90
35240;DHT22;21376;50.954;4.716;2023-12-28T19:29:00;10.70;99.90
35240;DHT22;21376;50.954;4.716;2023-12-28T19:35:14;10.80;99.90
35240;DHT22;21376;50.954;4.716;2023-12-28T19:37:46;10.80;99.90
35240;DHT22;21376;50.954;4.716;2023-12-28T19:40:15;10.80;99.90
35240;DHT22;21376;50.954;4.716;2023-12-28T19:42:44;10.90;99.90
35240;DHT22;21376;50.954;4.716;2023-12-28T19:45:13;10.80;99.90
35240;DHT22;21376;50.954;4.716;2023-12-28T19:47:57;10.80;99.90
35240;DHT22;21376;50.954;4.716;2023-12-28T19:50:26;10.70;99.90
35240;DHT22;21376;50.954;4.716;2023-12-28T20:07:57;10.70;99.90
35240;DHT22;21376;50.954;4.716;2023-12-28T20:10:27;10.80;99.90
35240;DHT22;21376;50.954;4.716;2023-12-28T20:12:56;10.80;99.90
35240;DHT22;21376;50.954;4.716;2023-12-28T20:15:57;10.80;99.90
35240;DHT22;21376;50.954;4.716;2023-12-28T20:18:26;10.80;99.90
35240;DHT22;21376;50.954;4.716;2023-12-28T20:20:55;10.80;99.90
35240;DHT22;21376;50.954;4.716;2023-12-28T20:26:39;10.90;99.90
35240;DHT22;21376;50.954;4.716;2023-12-28T20:32:57;10.80;99.90
35240;DHT22;21376;50.954;4.716;2023-12-28T20:35:29;10.80;99.90
35240;DHT22;21376;50.954;4.716;2023-12-28T20:37:55;10.80;99.90
35240;DHT22;21376;50.954;4.716;2023-12-28T20:40:20;10.80;99.90
35240;DHT22;21376;50.954;4.716;2023-12-28T20:42:46;10.80;99.90
35240;DHT22;21376;50.954;4.716;2023-12-28T20:45:12;10.80;99.90
35240;DHT22;21376;50.954;4.716;2023-12-28T20:47:41;10.80;99.90
35240;DHT22;21376;50.954;4.716;2023-12-28T20:50:07;10.80;99.90
35240;DHT22;21376;50.954;4.716;2023-12-28T20:52:35;10.80;99.90
35240;DHT22;21376;50.954;4.716;2023-12-28T20:55:03;10.80;99.90
35240;DHT22;21376;50.954;4.716;2023-12-28T20:57:34;10.70;99.90
35240;DHT22;21376;50.954;4.716;2023-12-28T21:00:03;10.80;99.90
35240;DHT22;21376;50.954;4.716;2023-12-28T21:02:50;10.80;99.90
35240;DHT22;21376;50.954;4.716;2023-12-28T21:05:19;10.80;99.90
35240;DHT22;21376;50.954;4.716;2023-12-28T21:07:51;10.70;99.90
35240;DHT22;21376;50.954;4.716;2023-12-28T21:10:20;10.70;99.90
35240;DHT22;21376;50.954;4.716;2023-12-28T21:12:49;10.80;99.90
35240;DHT22;21376;50.954;4.716;2023-12-28T21:15:30;10.70;99.90
35240;DHT22;21376;50.954;4.716;2023-12-28T21:18:02;10.70;99.90
35240;DHT22;21376;50.954;4.716;2023-12-28T21:20:31;10.80;99.90
35240;DHT22;21376;50.954;4.716;2023-12-28T21:23:00;10.80;99.90
35240;DHT22;21376;50.954;4.716;2023-12-28T21:25:56;10.80;99.90
35240;DHT22;21376;50.954;4.716;2023-12-28T21:28:24;10.70;99.90
35240;DHT22;21376;50.954;4.716;2023-12-28T21:30:53;10.60;99.90
35240;DHT22;21376;50.954;4.716;2023-12-28T21:33:22;10.70;99.90